sensor_id;sensor_type;location;lat;lon;timestamp;P1;durP1;ratioP1;P2;durP2;ratioP2
25549;SDS011;13444;50.562;7.262;2022-12-18T00:00:42;72.23;;;29.03;;
25549;SDS011;13444;50.562;7.262;2022-12-18T00:03:09;60.47;;;25.50;;
25549;SDS011;13444;50.562;7.262;2022-12-18T00:05:35;65.93;;;27.07;;
25549;SDS011;13444;50.562;7.262;2022-12-18T00:08:00;63.10;;;26.93;;
25549;SDS011;13444;50.562;7.262;2022-12-18T00:10:27;66.73;;;26.47;;
25549;SDS011;13444;50.562;7.262;2022-12-18T00:12:53;65.37;;;27.80;;
25549;SDS011;13444;50.562;7.262;2022-12-18T00:15:18;65.57;;;26.30;;
25549;SDS011;13444;50.562;7.262;2022-12-18T00:17:44;72.47;;;26.97;;
25549;SDS011;13444;50.562;7.262;2022-12-18T00:20:10;64.93;;;26.20;;
25549;SDS011;13444;50.562;7.262;2022-12-18T00:22:35;68.53;;;26.33;;
25549;SDS011;13444;50.562;7.262;2022-12-18T00:25:01;63.07;;;26.70;;
25549;SDS011;13444;50.562;7.262;2022-12-18T00:27:27;61.10;;;25.93;;
25549;SDS011;13444;50.562;7.262;2022-12-18T00:29:52;72.00;;;27.17;;
25549;SDS011;13444;50.562;7.262;2022-12-18T00:32:18;72.00;;;27.60;;
25549;SDS011;13444;50.562;7.262;2022-12-18T00:34:43;69.43;;;27.50;;
25549;SDS011;13444;50.562;7.262;2022-12-18T00:37:09;68.57;;;28.07;;
25549;SDS011;13444;50.562;7.262;2022-12-18T00:39:34;65.43;;;27.57;;
25549;SDS011;13444;50.562;7.262;2022-12-18T00:42:00;58.33;;;26.20;;
25549;SDS011;13444;50.562;7.262;2022-12-18T00:44:44;64.87;;;26.77;;
25549;SDS011;13444;50.562;7.262;2022-12-18T00:47:09;72.27;;;25.83;;
25549;SDS011;13444;50.562;7.262;2022-12-18T00:49:35;68.73;;;26.57;;
25549;SDS011;13444;50.562;7.262;2022-12-18T00:52:00;67.93;;;26.40;;
25549;SDS011;13444;50.562;7.262;2022-12-18T00:54:26;66.97;;;26.33;;
25549;SDS011;13444;50.562;7.262;2022-12-18T00:56:51;65.37;;;25.93;;
25549;SDS011;13444;50.562;7.262;2022-12-18T00:59:17;60.37;;;24.93;;
25549;SDS011;13444;50.562;7.262;2022-12-18T01:01:43;69.03;;;25.97;;
25549;SDS011;13444;50.562;7.262;2022-12-18T01:04:09;64.77;;;25.13;;
25549;SDS011;13444;50.562;7.262;2022-12-18T01:06:35;60.70;;;27.63;;
25549;SDS011;13444;50.562;7.262;2022-12-18T01:09:01;58.30;;;24.07;;
25549;SDS011;13444;50.562;7.262;2022-12-18T01:11:27;56.57;;;23.57;;
25549;SDS011;13444;50.562;7.262;2022-12-18T01:13:53;71.47;;;24.77;;
25549;SDS011;13444;50.562;7.262;2022-12-18T01:16:19;63.23;;;25.27;;
25549;SDS011;13444;50.562;7.262;2022-12-18T01:18:44;60.47;;;24.07;;
25549;SDS011;13444;50.562;7.262;2022-12-18T01:21:11;64.63;;;25.43;;
25549;SDS011;13444;50.562;7.262;2022-12-18T01:23:39;61.90;;;23.67;;
25549;SDS011;13444;50.562;7.262;2022-12-18T01:26:05;67.47;;;25.20;;
25549;SDS011;13444;50.562;7.262;2022-12-18T01:28:40;58.67;;;24.43;;
25549;SDS011;13444;50.562;7.262;2022-12-18T01:31:11;60.57;;;24.80;;
25549;SDS011;13444;50.562;7.262;2022-12-18T01:33:44;59.87;;;23.67;;
25549;SDS011;13444;50.562;7.262;2022-12-18T01:36:17;67.27;;;25.30;;
25549;SDS011;13444;50.562;7.262;2022-12-18T01:38:46;60.03;;;25.00;;
25549;SDS011;13444;50.562;7.262;2022-12-18T01:41:12;68.87;;;24.53;;
25549;SDS011;13444;50.562;7.262;2022-12-18T01:46:13;66.53;;;24.60;;
25549;SDS011;13444;50.562;7.262;2022-12-18T01:48:39;58.87;;;23.57;;
25549;SDS011;13444;50.562;7.262;2022-12-18T01:51:06;61.97;;;25.17;;
25549;SDS011;13444;50.562;7.262;2022-12-18T01:53:34;59.80;;;23.57;;
25549;SDS011;13444;50.562;7.262;2022-12-18T01:56:01;57.23;;;22.57;;
25549;SDS011;13444;50.562;7.262;2022-12-18T01:58:32;57.73;;;23.30;;
25549;SDS011;13444;50.562;7.262;2022-12-18T02:01:04;58.33;;;24.27;;
25549;SDS011;13444;50.562;7.262;2022-12-18T02:03:30;56.27;;;23.30;;
25549;SDS011;13444;50.562;7.262;2022-12-18T02:05:58;60.03;;;23.43;;
25549;SDS011;13444;50.562;7.262;2022-12-18T02:08:38;59.37;;;24.83;;
25549;SDS011;13444;50.562;7.262;2022-12-18T02:13:59;64.07;;;25.97;;
25549;SDS011;13444;50.562;7.262;2022-12-18T02:22:50;66.27;;;25.23;;
25549;SDS011;13444;50.562;7.262;2022-12-18T02:25:33;63.57;;;23.87;;
25549;SDS011;13444;50.562;7.262;2022-12-18T02:28:03;59.73;;;24.13;;
25549;SDS011;13444;50.562;7.262;2022-12-18T02:30:34;64.00;;;22.93;;
25549;SDS011;13444;50.562;7.262;2022-12-18T02:33:01;64.73;;;23.83;;
25549;SDS011;13444;50.562;7.262;2022-12-18T02:35:29;60.50;;;22.97;;
25549;SDS011;13444;50.562;7.262;2022-12-18T02:37:56;61.67;;;24.67;;
25549;SDS011;13444;50.562;7.262;2022-12-18T02:40:23;59.57;;;24.13;;
25549;SDS011;13444;50.562;7.262;2022-12-18T02:42:51;57.10;;;23.77;;
25549;SDS011;13444;50.562;7.262;2022-12-18T02:45:16;62.10;;;24.10;;
25549;SDS011;13444;50.562;7.262;2022-12-18T02:47:43;59.60;;;23.47;;
25549;SDS011;13444;50.562;7.262;2022-12-18T02:50:34;61.50;;;24.27;;
25549;SDS011;13444;50.562;7.262;2022-12-18T02:58:33;66.33;;;24.80;;
25549;SDS011;13444;50.562;7.262;2022-12-18T03:01:21;61.30;;;24.47;;
25549;SDS011;13444;50.562;7.262;2022-12-18T03:03:56;58.33;;;24.27;;
25549;SDS011;13444;50.562;7.262;2022-12-18T03:06:32;59.27;;;23.77;;
25549;SDS011;13444;50.562;7.262;2022-12-18T03:09:02;58.40;;;24.43;;
25549;SDS011;13444;50.562;7.262;2022-12-18T03:11:32;62.17;;;24.57;;
25549;SDS011;13444;50.562;7.262;2022-12-18T03:14:20;57.83;;;23.93;;
25549;SDS011;13444;50.562;7.262;2022-12-18T03:16:52;66.50;;;24.57;;
25549;SDS011;13444;50.562;7.262;2022-12-18T03:19:22;55.03;;;22.13;;
25549;SDS011;13444;50.562;7.262;2022-12-18T03:21:51;65.77;;;25.63;;
25549;SDS011;13444;50.562;7.262;2022-12-18T03:24:20;54.57;;;22.70;;
25549;SDS011;13444;50.562;7.262;2022-12-18T03:26:49;58.57;;;23.90;;
25549;SDS011;13444;50.562;7.262;2022-12-18T03:29:19;60.07;;;22.67;;
25549;SDS011;13444;50.562;7.262;2022-12-18T03:31:51;61.33;;;25.20;;
25549;SDS011;13444;50.562;7.262;2022-12-18T03:34:26;61.90;;;24.97;;
25549;SDS011;13444;50.562;7.262;2022-12-18T03:36:55;62.63;;;23.30;;
25549;SDS011;13444;50.562;7.262;2022-12-18T03:39:21;54.10;;;21.87;;
25549;SDS011;13444;50.562;7.262;2022-12-18T03:44:29;57.43;;;23.40;;
25549;SDS011;13444;50.562;7.262;2022-12-18T03:47:09;54.10;;;23.43;;
25549;SDS011;13444;50.562;7.262;2022-12-18T03:49:47;53.73;;;23.27;;
25549;SDS011;13444;50.562;7.262;2022-12-18T03:54:50;54.77;;;22.30;;
25549;SDS011;13444;50.562;7.262;2022-12-18T03:57:20;62.07;;;25.03;;
25549;SDS011;13444;50.562;7.262;2022-12-18T03:59:49;71.97;;;25.87;;
25549;SDS011;13444;50.562;7.262;2022-12-18T04:02:18;62.53;;;26.20;;
25549;SDS011;13444;50.562;7.262;2022-12-18T04:04:45;61.40;;;25.97;;
25549;SDS011;13444;50.562;7.262;2022-12-18T04:07:13;68.17;;;25.93;;
25549;SDS011;13444;50.562;7.262;2022-12-18T04:09:41;57.50;;;25.03;;
25549;SDS011;13444;50.562;7.262;2022-12-18T04:12:08;62.50;;;24.00;;
25549;SDS011;13444;50.562;7.262;2022-12-18T04:14:34;61.00;;;23.57;;
25549;SDS011;13444;50.562;7.262;2022-12-18T04:17:00;51.93;;;21.00;;
25549;SDS011;13444;50.562;7.262;2022-12-18T04:19:27;48.90;;;20.37;;
25549;SDS011;13444;50.562;7.262;2022-12-18T04:21:52;58.10;;;22.03;;
25549;SDS011;13444;50.562;7.262;2022-12-18T04:24:18;63.43;;;21.63;;
25549;SDS011;13444;50.562;7.262;2022-12-18T04:26:44;57.37;;;24.77;;
25549;SDS011;13444;50.562;7.262;2022-12-18T04:29:10;53.43;;;21.30;;
25549;SDS011;13444;50.562;7.262;2022-12-18T04:31:36;57.23;;;22.27;;
25549;SDS011;13444;50.562;7.262;2022-12-18T04:34:02;51.43;;;21.83;;
25549;SDS011;13444;50.562;7.262;2022-12-18T04:36:28;53.13;;;21.93;;
25549;SDS011;13444;50.562;7.262;2022-12-18T04:38:53;48.70;;;20.00;;
25549;SDS011;13444;50.562;7.262;2022-12-18T04:41:19;53.90;;;21.10;;
25549;SDS011;13444;50.562;7.262;2022-12-18T04:43:44;52.80;;;21.50;;
25549;SDS011;13444;50.562;7.262;2022-12-18T04:46:10;52.27;;;21.57;;
25549;SDS011;13444;50.562;7.262;2022-12-18T04:48:36;46.47;;;20.00;;
25549;SDS011;13444;50.562;7.262;2022-12-18T04:51:02;47.73;;;20.30;;
25549;SDS011;13444;50.562;7.262;2022-12-18T04:53:28;48.13;;;22.13;;
25549;SDS011;13444;50.562;7.262;2022-12-18T04:56:12;48.13;;;22.80;;
25549;SDS011;13444;50.562;7.262;2022-12-18T04:58:40;48.93;;;20.90;;
25549;SDS011;13444;50.562;7.262;2022-12-18T05:01:06;53.93;;;21.70;;
25549;SDS011;13444;50.562;7.262;2022-12-18T05:03:33;54.23;;;21.17;;
25549;SDS011;13444;50.562;7.262;2022-12-18T05:05:59;46.07;;;21.03;;
25549;SDS011;13444;50.562;7.262;2022-12-18T05:08:25;50.17;;;22.57;;
25549;SDS011;13444;50.562;7.262;2022-12-18T05:11:00;52.60;;;21.73;;
25549;SDS011;13444;50.562;7.262;2022-12-18T05:13:30;49.33;;;21.10;;
25549;SDS011;13444;50.562;7.262;2022-12-18T05:15:56;48.80;;;22.13;;
25549;SDS011;13444;50.562;7.262;2022-12-18T05:18:22;59.37;;;23.33;;
25549;SDS011;13444;50.562;7.262;2022-12-18T05:20:49;48.43;;;21.53;;
25549;SDS011;13444;50.562;7.262;2022-12-18T05:23:16;52.37;;;21.43;;
25549;SDS011;13444;50.562;7.262;2022-12-18T05:25:41;49.37;;;21.80;;
25549;SDS011;13444;50.562;7.262;2022-12-18T05:28:07;51.63;;;21.90;;
25549;SDS011;13444;50.562;7.262;2022-12-18T05:30:32;50.33;;;19.53;;
25549;SDS011;13444;50.562;7.262;2022-12-18T05:32:58;55.10;;;22.10;;
25549;SDS011;13444;50.562;7.262;2022-12-18T05:35:24;54.33;;;20.57;;
25549;SDS011;13444;50.562;7.262;2022-12-18T05:37:49;52.10;;;21.47;;
25549;SDS011;13444;50.562;7.262;2022-12-18T05:40:15;43.43;;;19.80;;
25549;SDS011;13444;50.562;7.262;2022-12-18T05:42:41;49.23;;;20.37;;
25549;SDS011;13444;50.562;7.262;2022-12-18T05:45:06;48.17;;;20.37;;
25549;SDS011;13444;50.562;7.262;2022-12-18T05:47:32;53.07;;;21.17;;
25549;SDS011;13444;50.562;7.262;2022-12-18T05:49:58;51.33;;;21.00;;
25549;SDS011;13444;50.562;7.262;2022-12-18T05:52:23;52.23;;;20.87;;
25549;SDS011;13444;50.562;7.262;2022-12-18T05:54:49;55.60;;;21.10;;
25549;SDS011;13444;50.562;7.262;2022-12-18T05:57:15;51.80;;;20.40;;
25549;SDS011;13444;50.562;7.262;2022-12-18T05:59:40;44.60;;;20.73;;
25549;SDS011;13444;50.562;7.262;2022-12-18T06:02:06;48.80;;;22.00;;
25549;SDS011;13444;50.562;7.262;2022-12-18T06:04:31;43.83;;;20.33;;
25549;SDS011;13444;50.562;7.262;2022-12-18T06:06:58;43.97;;;19.50;;
25549;SDS011;13444;50.562;7.262;2022-12-18T06:09:23;50.63;;;21.90;;
25549;SDS011;13444;50.562;7.262;2022-12-18T06:11:49;50.37;;;20.07;;
25549;SDS011;13444;50.562;7.262;2022-12-18T06:14:16;46.83;;;20.50;;
25549;SDS011;13444;50.562;7.262;2022-12-18T06:16:42;46.47;;;19.63;;
25549;SDS011;13444;50.562;7.262;2022-12-18T06:19:13;45.53;;;19.67;;
25549;SDS011;13444;50.562;7.262;2022-12-18T06:21:40;50.47;;;22.00;;
25549;SDS011;13444;50.562;7.262;2022-12-18T06:24:06;41.03;;;20.43;;
25549;SDS011;13444;50.562;7.262;2022-12-18T06:26:32;43.50;;;19.70;;
25549;SDS011;13444;50.562;7.262;2022-12-18T06:28:58;47.57;;;20.87;;
25549;SDS011;13444;50.562;7.262;2022-12-18T06:31:23;46.57;;;20.83;;
25549;SDS011;13444;50.562;7.262;2022-12-18T06:33:49;45.03;;;19.83;;
25549;SDS011;13444;50.562;7.262;2022-12-18T06:36:15;48.40;;;21.63;;
25549;SDS011;13444;50.562;7.262;2022-12-18T06:38:42;46.57;;;20.57;;
25549;SDS011;13444;50.562;7.262;2022-12-18T06:41:15;45.67;;;22.00;;
25549;SDS011;13444;50.562;7.262;2022-12-18T06:43:43;45.70;;;21.53;;
25549;SDS011;13444;50.562;7.262;2022-12-18T06:46:10;43.50;;;19.67;;
25549;SDS011;13444;50.562;7.262;2022-12-18T06:48:36;51.07;;;22.70;;
25549;SDS011;13444;50.562;7.262;2022-12-18T06:51:02;44.70;;;21.03;;
25549;SDS011;13444;50.562;7.262;2022-12-18T06:53:28;45.57;;;20.10;;
25549;SDS011;13444;50.562;7.262;2022-12-18T06:56:01;49.83;;;20.90;;
25549;SDS011;13444;50.562;7.262;2022-12-18T06:58:31;44.47;;;20.63;;
25549;SDS011;13444;50.562;7.262;2022-12-18T07:01:03;46.97;;;20.77;;
25549;SDS011;13444;50.562;7.262;2022-12-18T07:03:30;40.73;;;20.67;;
25549;SDS011;13444;50.562;7.262;2022-12-18T07:05:56;42.50;;;18.17;;
25549;SDS011;13444;50.562;7.262;2022-12-18T07:08:22;42.77;;;18.87;;
25549;SDS011;13444;50.562;7.262;2022-12-18T07:10:47;42.40;;;19.07;;
25549;SDS011;13444;50.562;7.262;2022-12-18T07:13:16;46.00;;;20.67;;
25549;SDS011;13444;50.562;7.262;2022-12-18T07:15:42;45.57;;;21.03;;
25549;SDS011;13444;50.562;7.262;2022-12-18T07:18:08;43.37;;;18.37;;
25549;SDS011;13444;50.562;7.262;2022-12-18T07:20:33;43.10;;;19.73;;
25549;SDS011;13444;50.562;7.262;2022-12-18T07:23:01;44.50;;;18.47;;
25549;SDS011;13444;50.562;7.262;2022-12-18T07:25:27;43.33;;;19.87;;
25549;SDS011;13444;50.562;7.262;2022-12-18T07:27:54;44.73;;;19.73;;
25549;SDS011;13444;50.562;7.262;2022-12-18T07:30:19;44.73;;;19.30;;
25549;SDS011;13444;50.562;7.262;2022-12-18T07:32:45;44.40;;;19.50;;
25549;SDS011;13444;50.562;7.262;2022-12-18T07:35:10;49.80;;;20.87;;
25549;SDS011;13444;50.562;7.262;2022-12-18T07:37:36;44.20;;;19.97;;
25549;SDS011;13444;50.562;7.262;2022-12-18T07:40:01;45.87;;;22.17;;
25549;SDS011;13444;50.562;7.262;2022-12-18T07:42:27;45.33;;;21.10;;
25549;SDS011;13444;50.562;7.262;2022-12-18T07:44:56;48.30;;;21.50;;
25549;SDS011;13444;50.562;7.262;2022-12-18T07:47:22;45.33;;;20.93;;
25549;SDS011;13444;50.562;7.262;2022-12-18T07:49:48;45.63;;;21.77;;
25549;SDS011;13444;50.562;7.262;2022-12-18T07:52:14;45.63;;;21.23;;
25549;SDS011;13444;50.562;7.262;2022-12-18T07:54:40;52.17;;;23.10;;
25549;SDS011;13444;50.562;7.262;2022-12-18T07:57:06;47.00;;;20.40;;
25549;SDS011;13444;50.562;7.262;2022-12-18T07:59:32;50.63;;;22.30;;
25549;SDS011;13444;50.562;7.262;2022-12-18T08:01:57;47.90;;;21.17;;
25549;SDS011;13444;50.562;7.262;2022-12-18T08:04:23;48.47;;;22.33;;
25549;SDS011;13444;50.562;7.262;2022-12-18T08:06:49;46.40;;;22.23;;
25549;SDS011;13444;50.562;7.262;2022-12-18T08:09:15;41.13;;;20.07;;
25549;SDS011;13444;50.562;7.262;2022-12-18T08:11:40;46.43;;;20.80;;
25549;SDS011;13444;50.562;7.262;2022-12-18T08:14:06;49.87;;;20.77;;
25549;SDS011;13444;50.562;7.262;2022-12-18T08:16:31;46.10;;;20.60;;
25549;SDS011;13444;50.562;7.262;2022-12-18T08:18:57;53.03;;;23.60;;
25549;SDS011;13444;50.562;7.262;2022-12-18T08:21:23;49.07;;;22.13;;
25549;SDS011;13444;50.562;7.262;2022-12-18T08:23:54;43.90;;;20.77;;
25549;SDS011;13444;50.562;7.262;2022-12-18T08:26:20;44.30;;;21.37;;
25549;SDS011;13444;50.562;7.262;2022-12-18T08:28:47;44.37;;;21.23;;
25549;SDS011;13444;50.562;7.262;2022-12-18T08:31:14;47.43;;;20.00;;
25549;SDS011;13444;50.562;7.262;2022-12-18T08:33:40;44.30;;;20.17;;
25549;SDS011;13444;50.562;7.262;2022-12-18T08:36:07;42.77;;;20.67;;
25549;SDS011;13444;50.562;7.262;2022-12-18T08:38:34;47.83;;;21.63;;
25549;SDS011;13444;50.562;7.262;2022-12-18T08:41:04;44.80;;;21.57;;
25549;SDS011;13444;50.562;7.262;2022-12-18T08:43:30;48.20;;;20.40;;
25549;SDS011;13444;50.562;7.262;2022-12-18T08:46:14;43.93;;;20.33;;
25549;SDS011;13444;50.562;7.262;2022-12-18T08:48:40;43.33;;;20.20;;
25549;SDS011;13444;50.562;7.262;2022-12-18T08:51:06;43.70;;;19.63;;
25549;SDS011;13444;50.562;7.262;2022-12-18T08:53:31;40.93;;;20.87;;
25549;SDS011;13444;50.562;7.262;2022-12-18T08:55:57;44.40;;;21.90;;
25549;SDS011;13444;50.562;7.262;2022-12-18T08:58:25;44.20;;;21.33;;
25549;SDS011;13444;50.562;7.262;2022-12-18T09:00:51;43.20;;;20.53;;
25549;SDS011;13444;50.562;7.262;2022-12-18T09:03:17;39.07;;;19.90;;
25549;SDS011;13444;50.562;7.262;2022-12-18T09:05:45;50.93;;;21.80;;
25549;SDS011;13444;50.562;7.262;2022-12-18T09:08:11;50.07;;;21.70;;
25549;SDS011;13444;50.562;7.262;2022-12-18T09:10:47;49.63;;;21.50;;
25549;SDS011;13444;50.562;7.262;2022-12-18T09:13:14;47.63;;;20.93;;
25549;SDS011;13444;50.562;7.262;2022-12-18T09:15:41;43.77;;;21.27;;
25549;SDS011;13444;50.562;7.262;2022-12-18T09:18:08;48.63;;;22.10;;
25549;SDS011;13444;50.562;7.262;2022-12-18T09:20:34;44.13;;;21.83;;
25549;SDS011;13444;50.562;7.262;2022-12-18T09:23:01;40.67;;;19.73;;
25549;SDS011;13444;50.562;7.262;2022-12-18T09:25:28;44.47;;;21.57;;
25549;SDS011;13444;50.562;7.262;2022-12-18T09:27:58;40.67;;;19.97;;
25549;SDS011;13444;50.562;7.262;2022-12-18T09:30:25;41.77;;;19.83;;
25549;SDS011;13444;50.562;7.262;2022-12-18T09:32:51;47.77;;;20.17;;
25549;SDS011;13444;50.562;7.262;2022-12-18T09:35:20;43.17;;;20.07;;
25549;SDS011;13444;50.562;7.262;2022-12-18T09:37:45;42.77;;;19.23;;
25549;SDS011;13444;50.562;7.262;2022-12-18T09:40:18;40.27;;;19.07;;
25549;SDS011;13444;50.562;7.262;2022-12-18T09:42:47;36.10;;;18.03;;
25549;SDS011;13444;50.562;7.262;2022-12-18T09:45:22;40.07;;;18.33;;
25549;SDS011;13444;50.562;7.262;2022-12-18T09:47:48;45.73;;;20.67;;
25549;SDS011;13444;50.562;7.262;2022-12-18T09:50:24;39.83;;;18.77;;
25549;SDS011;13444;50.562;7.262;2022-12-18T09:52:55;41.43;;;19.63;;
25549;SDS011;13444;50.562;7.262;2022-12-18T09:55:42;43.07;;;20.03;;
25549;SDS011;13444;50.562;7.262;2022-12-18T09:58:15;41.53;;;19.13;;
25549;SDS011;13444;50.562;7.262;2022-12-18T10:00:52;40.77;;;19.47;;
25549;SDS011;13444;50.562;7.262;2022-12-18T10:03:18;40.57;;;19.63;;
25549;SDS011;13444;50.562;7.262;2022-12-18T10:05:51;38.87;;;19.37;;
25549;SDS011;13444;50.562;7.262;2022-12-18T10:19:37;42.37;;;20.13;;
25549;SDS011;13444;50.562;7.262;2022-12-18T10:22:33;40.13;;;19.00;;
25549;SDS011;13444;50.562;7.262;2022-12-18T10:25:33;43.70;;;21.07;;
25549;SDS011;13444;50.562;7.262;2022-12-18T10:28:07;41.67;;;20.27;;
25549;SDS011;13444;50.562;7.262;2022-12-18T10:30:37;37.33;;;19.27;;
25549;SDS011;13444;50.562;7.262;2022-12-18T10:33:04;39.97;;;19.00;;
25549;SDS011;13444;50.562;7.262;2022-12-18T10:35:29;41.67;;;20.37;;
25549;SDS011;13444;50.562;7.262;2022-12-18T10:37:59;37.47;;;18.50;;
25549;SDS011;13444;50.562;7.262;2022-12-18T10:40:59;38.10;;;18.87;;
25549;SDS011;13444;50.562;7.262;2022-12-18T10:44:25;42.10;;;19.77;;
25549;SDS011;13444;50.562;7.262;2022-12-18T10:46:49;38.13;;;18.37;;
25549;SDS011;13444;50.562;7.262;2022-12-18T10:49:25;41.00;;;19.47;;
25549;SDS011;13444;50.562;7.262;2022-12-18T10:52:05;32.23;;;18.13;;
25549;SDS011;13444;50.562;7.262;2022-12-18T10:54:46;39.10;;;19.70;;
25549;SDS011;13444;50.562;7.262;2022-12-18T11:00:19;44.37;;;20.20;;
25549;SDS011;13444;50.562;7.262;2022-12-18T11:02:50;41.37;;;20.40;;
25549;SDS011;13444;50.562;7.262;2022-12-18T11:05:49;41.23;;;21.00;;
25549;SDS011;13444;50.562;7.262;2022-12-18T11:08:11;40.00;;;19.33;;
25549;SDS011;13444;50.562;7.262;2022-12-18T11:10:47;38.60;;;20.23;;
25549;SDS011;13444;50.562;7.262;2022-12-18T11:13:17;38.57;;;20.80;;
25549;SDS011;13444;50.562;7.262;2022-12-18T11:15:48;37.40;;;20.00;;
25549;SDS011;13444;50.562;7.262;2022-12-18T11:18:35;42.33;;;20.53;;
25549;SDS011;13444;50.562;7.262;2022-12-18T11:23:26;39.13;;;21.37;;
25549;SDS011;13444;50.562;7.262;2022-12-18T11:25:56;42.87;;;19.40;;
25549;SDS011;13444;50.562;7.262;2022-12-18T11:28:37;37.30;;;19.70;;
25549;SDS011;13444;50.562;7.262;2022-12-18T11:33:54;44.70;;;21.43;;
25549;SDS011;13444;50.562;7.262;2022-12-18T11:36:44;44.57;;;22.30;;
25549;SDS011;13444;50.562;7.262;2022-12-18T11:39:17;46.37;;;21.70;;
25549;SDS011;13444;50.562;7.262;2022-12-18T11:42:20;41.47;;;21.70;;
25549;SDS011;13444;50.562;7.262;2022-12-18T11:47:23;40.73;;;20.47;;
25549;SDS011;13444;50.562;7.262;2022-12-18T11:49:56;41.70;;;21.23;;
25549;SDS011;13444;50.562;7.262;2022-12-18T11:52:39;43.43;;;22.20;;
25549;SDS011;13444;50.562;7.262;2022-12-18T11:55:13;41.40;;;20.93;;
25549;SDS011;13444;50.562;7.262;2022-12-18T12:00:34;41.40;;;19.43;;
25549;SDS011;13444;50.562;7.262;2022-12-18T12:03:18;41.57;;;21.23;;
25549;SDS011;13444;50.562;7.262;2022-12-18T12:14:23;41.80;;;20.90;;
25549;SDS011;13444;50.562;7.262;2022-12-18T12:19:42;43.27;;;21.63;;
25549;SDS011;13444;50.562;7.262;2022-12-18T12:22:24;47.40;;;22.70;;
25549;SDS011;13444;50.562;7.262;2022-12-18T12:25:31;41.03;;;21.13;;
25549;SDS011;13444;50.562;7.262;2022-12-18T12:34:08;43.67;;;21.27;;
25549;SDS011;13444;50.562;7.262;2022-12-18T12:36:58;45.40;;;22.17;;
25549;SDS011;13444;50.562;7.262;2022-12-18T12:39:34;42.47;;;22.00;;
25549;SDS011;13444;50.562;7.262;2022-12-18T12:42:04;43.83;;;21.43;;
25549;SDS011;13444;50.562;7.262;2022-12-18T12:44:55;46.13;;;22.40;;
25549;SDS011;13444;50.562;7.262;2022-12-18T12:47:24;42.53;;;23.87;;
25549;SDS011;13444;50.562;7.262;2022-12-18T12:49:53;48.17;;;23.57;;
25549;SDS011;13444;50.562;7.262;2022-12-18T12:52:24;46.70;;;23.20;;
25549;SDS011;13444;50.562;7.262;2022-12-18T12:54:55;45.67;;;22.97;;
25549;SDS011;13444;50.562;7.262;2022-12-18T12:57:34;44.63;;;21.63;;
25549;SDS011;13444;50.562;7.262;2022-12-18T13:00:07;41.70;;;21.57;;
25549;SDS011;13444;50.562;7.262;2022-12-18T13:05:26;43.53;;;21.97;;
25549;SDS011;13444;50.562;7.262;2022-12-18T13:08:06;41.70;;;22.13;;
25549;SDS011;13444;50.562;7.262;2022-12-18T13:10:37;42.63;;;21.50;;
25549;SDS011;13444;50.562;7.262;2022-12-18T13:13:08;40.80;;;20.83;;
25549;SDS011;13444;50.562;7.262;2022-12-18T13:15:41;40.97;;;21.33;;
25549;SDS011;13444;50.562;7.262;2022-12-18T13:20:40;41.87;;;22.03;;
25549;SDS011;13444;50.562;7.262;2022-12-18T13:31:58;43.20;;;19.97;;
25549;SDS011;13444;50.562;7.262;2022-12-18T13:34:15;38.37;;;20.53;;
25549;SDS011;13444;50.562;7.262;2022-12-18T13:36:45;42.57;;;22.27;;
25549;SDS011;13444;50.562;7.262;2022-12-18T13:41:47;45.90;;;22.63;;
25549;SDS011;13444;50.562;7.262;2022-12-18T13:44:32;45.27;;;21.90;;
25549;SDS011;13444;50.562;7.262;2022-12-18T13:47:04;43.90;;;22.50;;
25549;SDS011;13444;50.562;7.262;2022-12-18T13:49:49;48.33;;;23.97;;
25549;SDS011;13444;50.562;7.262;2022-12-18T13:52:22;48.40;;;22.83;;
25549;SDS011;13444;50.562;7.262;2022-12-18T13:54:51;39.73;;;21.47;;
25549;SDS011;13444;50.562;7.262;2022-12-18T13:57:40;51.90;;;25.13;;
25549;SDS011;13444;50.562;7.262;2022-12-18T14:02:53;44.10;;;22.83;;
25549;SDS011;13444;50.562;7.262;2022-12-18T14:05:26;46.90;;;23.17;;
25549;SDS011;13444;50.562;7.262;2022-12-18T14:07:54;40.37;;;22.37;;
25549;SDS011;13444;50.562;7.262;2022-12-18T14:10:25;47.83;;;24.27;;
25549;SDS011;13444;50.562;7.262;2022-12-18T14:12:51;43.90;;;22.27;;
25549;SDS011;13444;50.562;7.262;2022-12-18T14:21:03;46.03;;;22.80;;
25549;SDS011;13444;50.562;7.262;2022-12-18T14:24:02;44.23;;;22.57;;
25549;SDS011;13444;50.562;7.262;2022-12-18T14:26:39;41.50;;;21.70;;
25549;SDS011;13444;50.562;7.262;2022-12-18T14:31:46;39.17;;;20.57;;
25549;SDS011;13444;50.562;7.262;2022-12-18T14:34:34;42.40;;;21.60;;
25549;SDS011;13444;50.562;7.262;2022-12-18T14:36:59;40.90;;;21.27;;
25549;SDS011;13444;50.562;7.262;2022-12-18T14:39:25;40.23;;;21.83;;
25549;SDS011;13444;50.562;7.262;2022-12-18T14:41:51;41.00;;;21.20;;
25549;SDS011;13444;50.562;7.262;2022-12-18T14:44:17;42.57;;;21.17;;
25549;SDS011;13444;50.562;7.262;2022-12-18T14:46:44;34.70;;;19.27;;
25549;SDS011;13444;50.562;7.262;2022-12-18T14:49:22;38.77;;;20.53;;
25549;SDS011;13444;50.562;7.262;2022-12-18T14:51:57;45.33;;;21.23;;
25549;SDS011;13444;50.562;7.262;2022-12-18T14:54:25;40.37;;;19.93;;
25549;SDS011;13444;50.562;7.262;2022-12-18T14:57:03;37.93;;;19.80;;
25549;SDS011;13444;50.562;7.262;2022-12-18T14:59:29;36.17;;;20.50;;
25549;SDS011;13444;50.562;7.262;2022-12-18T15:04:36;42.80;;;21.37;;
25549;SDS011;13444;50.562;7.262;2022-12-18T15:07:15;44.33;;;21.30;;
25549;SDS011;13444;50.562;7.262;2022-12-18T15:09:47;42.90;;;21.37;;
25549;SDS011;13444;50.562;7.262;2022-12-18T15:12:46;40.47;;;21.83;;
25549;SDS011;13444;50.562;7.262;2022-12-18T15:25:56;46.43;;;23.40;;
25549;SDS011;13444;50.562;7.262;2022-12-18T15:33:38;43.30;;;22.13;;
25549;SDS011;13444;50.562;7.262;2022-12-18T15:36:05;43.27;;;23.90;;
25549;SDS011;13444;50.562;7.262;2022-12-18T15:38:34;52.13;;;26.17;;
25549;SDS011;13444;50.562;7.262;2022-12-18T15:41:00;58.63;;;26.63;;
25549;SDS011;13444;50.562;7.262;2022-12-18T15:43:26;60.50;;;27.87;;
25549;SDS011;13444;50.562;7.262;2022-12-18T15:48:47;45.93;;;23.50;;
25549;SDS011;13444;50.562;7.262;2022-12-18T15:51:18;57.27;;;26.33;;
25549;SDS011;13444;50.562;7.262;2022-12-18T15:53:45;55.07;;;26.97;;
25549;SDS011;13444;50.562;7.262;2022-12-18T15:56:13;62.67;;;27.57;;
25549;SDS011;13444;50.562;7.262;2022-12-18T15:58:58;57.53;;;26.53;;
25549;SDS011;13444;50.562;7.262;2022-12-18T16:01:25;68.07;;;30.20;;
25549;SDS011;13444;50.562;7.262;2022-12-18T16:03:53;63.63;;;28.90;;
25549;SDS011;13444;50.562;7.262;2022-12-18T16:06:19;68.87;;;30.33;;
25549;SDS011;13444;50.562;7.262;2022-12-18T16:08:47;63.47;;;27.80;;
25549;SDS011;13444;50.562;7.262;2022-12-18T16:13:45;70.60;;;30.27;;
25549;SDS011;13444;50.562;7.262;2022-12-18T16:16:10;100.03;;;36.10;;
25549;SDS011;13444;50.562;7.262;2022-12-18T16:18:36;107.13;;;36.90;;
25549;SDS011;13444;50.562;7.262;2022-12-18T16:21:01;72.60;;;28.47;;
25549;SDS011;13444;50.562;7.262;2022-12-18T16:23:27;62.90;;;27.37;;
25549;SDS011;13444;50.562;7.262;2022-12-18T16:25:53;63.20;;;27.63;;
25549;SDS011;13444;50.562;7.262;2022-12-18T16:28:18;58.13;;;28.00;;
25549;SDS011;13444;50.562;7.262;2022-12-18T16:30:44;61.20;;;29.20;;
25549;SDS011;13444;50.562;7.262;2022-12-18T16:33:09;58.67;;;27.70;;